Time;durP1;ratioP1;P1;durP2;ratioP2;P2;SDS_P1;SDS_P2;PMS_P1;PMS_P2;Temp;Humidity;BMP_temperature;BMP_pressure;BME280_temperature;BME280_humidity;BME280_pressure;Samples;Min_cycle;Max_cycle;Signal;HPM_P1;HPM_P2
2024/03/30 00:08:17;;;;;;;10.1;4.6;;;;;;;9.53;81.34;97740;;;;
2024/03/30 00:19:17;;;;;;;5.4;2.8;;;;;;;9.24;80.77;97738.333333333;;;;
2024/03/30 00:30:17;;;;;;;5.4;2.8;;;;;;;9.05;81.75;97738.333333333;;;;
2024/03/30 00:40:17;;;;;;;5.4;2.8;;;;;;;8.88;82.41;97730;;;;
2024/03/30 00:51:17;;;;;;;5.8;2.8;;;;;;;8.67;82.52;97726.666666667;;;;
2024/03/30 01:01:17;;;;;;;5.8;2.8;;;;;;;8.82;83.85;97720;;;;
2024/03/30 01:12:17;;;;;;;5.8;2.8;;;;;;;8.76;83.52;97715;;;;
2024/03/30 01:22:17;;;;;;;10.4;4.2;;;;;;;8.72;82.75;97720;;;;
2024/03/30 01:33:17;;;;;;;10.4;4.2;;;;;;;8.48;82.14;97718.333333333;;;;
2024/03/30 01:44:17;;;;;;;10.4;4.2;;;;;;;8.28;82.01;97711.666666667;;;;
2024/03/30 01:54:17;;;;;;;8.9;4.4;;;;;;;8.16;82.48;97710;;;;
2024/03/30 02:05:17;;;;;;;8.9;4.4;;;;;;;8.01;82.86;97710;;;;
2024/03/30 02:15:17;;;;;;;8.9;4.4;;;;;;;8.04;83.83;97718.333333333;;;;
2024/03/30 02:26:17;;;;;;;10.1;3;;;;;;;7.96;83.81;97720;;;;
2024/03/30 02:36:17;;;;;;;10.1;3;;;;;;;7.98;84.49;97720;;;;
2024/03/30 02:47:17;;;;;;;7.9;3.6;;;;;;;7.85;84.61;97725;;;;
2024/03/30 02:57:17;;;;;;;7.9;3.6;;;;;;;7.68;85.63;97731.666666667;;;;
2024/03/30 03:08:17;;;;;;;7.9;3.6;;;;;;;7.58;84.88;97743.333333333;;;;
2024/03/30 03:19:17;;;;;;;9.8;4.4;;;;;;;7.5;85.41;97745;;;;
2024/03/30 03:30:17;;;;;;;9.8;4.4;;;;;;;7.49;85.88;97728.333333333;;;;
2024/03/30 03:40:17;;;;;;;9.8;4.4;;;;;;;7.45;86.68;97726.666666667;;;;
2024/03/30 03:50:17;;;;;;;7.7;2.8;;;;;;;7.42;86.54;97726.666666667;;;;
2024/03/30 04:01:18;;;;;;;7.7;2.8;;;;;;;7.53;86.64;97733.333333333;;;;
2024/03/30 04:11:17;;;;;;;7.7;2.8;;;;;;;7.38;85.6;97746.666666667;;;;
2024/03/30 04:22:17;;;;;;;5;2.4;;;;;;;7.25;85.71;97746.666666667;;;;
2024/03/30 04:33:17;;;;;;;5;2.4;;;;;;;7.21;85.61;97761.666666667;;;;
2024/03/30 04:44:17;;;;;;;5;2.4;;;;;;;7.05;85.16;97760;;;;
2024/03/30 04:54:17;;;;;;;8.4;3.1;;;;;;;7.05;87.01;97758.333333333;;;;
2024/03/30 05:05:17;;;;;;;8.4;3.1;;;;;;;7.25;87.97;97760;;;;
2024/03/30 05:15:17;;;;;;;8.4;3.1;;;;;;;7.6;88.2;97751.666666667;;;;
2024/03/30 05:25:17;;;;;;;9.5;3.7;;;;;;;8.13;88.25;97751.666666667;;;;
2024/03/30 05:36:17;;;;;;;9.5;3.7;;;;;;;8.76;86.36;97750;;;;
2024/03/30 05:47:17;;;;;;;10.2;4.4;;;;;;;9.26;84.66;97761.666666667;;;;
2024/03/30 05:58:17;;;;;;;10.2;4.4;;;;;;;9.76;83.34;97768.333333333;;;;
2024/03/30 06:08:17;;;;;;;10.2;4.4;;;;;;;10.46;81.99;97763.333333333;;;;
2024/03/30 06:19:17;;;;;;;18.2;8.5;;;;;;;11.1;79.62;97766.666666667;;;;
2024/03/30 06:29:17;;;;;;;18.2;8.5;;;;;;;11.61;79.1;97763.333333333;;;;
2024/03/30 06:50:17;;;;;;;19.2;8;;;;;;;13.36;75.46;97755;;;;
2024/03/30 07:01:17;;;;;;;19.2;8;;;;;;;14.12;73.1;97766.666666667;;;;
2024/03/30 07:11:19;;;;;;;19.2;8;;;;;;;14.72;70.97;97776.666666667;;;;
2024/03/30 07:21:17;;;;;;;15.1;8.8;;;;;;;15.3;70.06;97798.333333333;;;;
2024/03/30 07:32:17;;;;;;;15.1;8.8;;;;;;;16.02;69.54;97795;;;;
2024/03/30 07:42:17;;;;;;;15.1;8.8;;;;;;;16.6;65.51;97808.333333333;;;;
2024/03/30 07:53:17;;;;;;;18.8;8.1;;;;;;;17.17;64.77;97811.666666667;;;;
2024/03/30 08:03:17;;;;;;;18.8;8.1;;;;;;;17.81;62.55;97811.666666667;;;;
2024/03/30 08:14:19;;;;;;;18.8;8.1;;;;;;;18.45;59.63;97808.333333333;;;;
2024/03/30 08:25:17;;;;;;;21.7;8.6;;;;;;;19.06;57.96;97810;;;;
2024/03/30 08:36:17;;;;;;;21.7;8.6;;;;;;;19.72;52.67;97813.333333333;;;;
2024/03/30 08:43:38;;;;;;;21.7;8.6;;;;;;;20.12;50.55;97810;;;;
2024/03/30 08:54:38;;;;;;;30.5;11.2;;;;;;;20.76;51.12;97800;;;;
2024/03/30 09:05:38;;;;;;;30.5;11.2;;;;;;;21.53;46.98;97791.666666667;;;;
2024/03/30 09:15:38;;;;;;;30.5;11.2;;;;;;;21.8;45.46;97783.333333333;;;;
2024/03/30 09:25:38;;;;;;;35;11.6;;;;;;;22.16;42.45;97771.666666667;;;;
2024/03/30 09:36:38;;;;;;;35;11.6;;;;;;;22.59;43.4;97780;;;;
2024/03/30 09:47:38;;;;;;;37.6;13.4;;;;;;;22.94;42.03;97770;;;;
2024/03/30 09:57:39;;;;;;;37.6;13.4;;;;;;;23.03;40.41;97775;;;;
2024/03/30 10:07:38;;;;;;;37.6;13.4;;;;;;;23.37;41.55;97765;;;;
2024/03/30 10:17:39;;;;;;;43.1;16.5;;;;;;;23.95;39.4;97760;;;;
2024/03/30 10:27:38;;;;;;;43.1;16.5;;;;;;;24.43;34.46;97750;;;;
2024/03/30 10:38:38;;;;;;;43.1;16.5;;;;;;;24.61;35.04;97746.666666667;;;;
2024/03/30 10:48:38;;;;;;;46.2;14.9;;;;;;;24.93;31.94;97743.333333333;;;;
2024/03/30 10:59:41;;;;;;;46.2;14.9;;;;;;;25.3;32.77;97733.333333333;;;;
2024/03/30 11:09:39;;;;;;;46.2;14.9;;;;;;;25.33;32.87;97723.333333333;;;;
2024/03/30 11:20:38;;;;;;;42;12.4;;;;;;;25.18;31.37;97715;;;;
2024/03/30 11:30:38;;;;;;;42;12.4;;;;;;;25.16;26.62;97716.666666667;;;;
2024/03/30 11:40:38;;;;;;;42;12.4;;;;;;;25.55;29.31;97711.666666667;;;;
2024/03/30 11:50:39;;;;;;;32.2;12.1;;;;;;;25.22;27.01;97723.333333333;;;;
2024/03/30 12:01:38;;;;;;;32.2;12.1;;;;;;;25.07;27.6;97711.666666667;;;;
2024/03/30 12:12:38;;;;;;;32.2;12.1;;;;;;;25.19;30.35;97705;;;;
2024/03/30 12:22:38;;;;;;;39.9;10.4;;;;;;;24.83;24.6;97715;;;;
2024/03/30 12:33:38;;;;;;;39.9;10.4;;;;;;;24.23;28.61;97721.666666667;;;;
2024/03/30 12:43:38;;;;;;;39.9;10.4;;;;;;;24.68;28.97;97723.333333333;;;;
2024/03/30 12:54:38;;;;;;;38.1;10.2;;;;;;;24.38;28.23;97721.666666667;;;;
2024/03/30 13:04:38;;;;;;;38.1;10.2;;;;;;;24.45;31.93;97718.333333333;;;;
2024/03/30 13:15:38;;;;;;;38.1;10.2;;;;;;;23.78;30.68;97715;;;;
2024/03/30 13:25:38;;;;;;;36.5;11.5;;;;;;;23.15;33.14;97715;;;;
2024/03/30 13:36:38;;;;;;;36.5;11.5;;;;;;;23.15;34.01;97710;;;;
2024/03/30 13:47:38;;;;;;;40.2;15.3;;;;;;;22.93;32.14;97703.333333333;;;;
2024/03/30 13:57:38;;;;;;;40.2;15.3;;;;;;;22.8;32.88;97698.333333333;;;;
2024/03/30 14:07:39;;;;;;;40.2;15.3;;;;;;;22.95;34.86;97680;;;;
2024/03/30 14:18:39;;;;;;;39;12.9;;;;;;;22.58;36.39;97678.333333333;;;;
2024/03/30 14:29:38;;;;;;;39;12.9;;;;;;;22.78;35.84;97670;;;;
2024/03/30 14:40:38;;;;;;;39;12.9;;;;;;;22.44;36.96;97663.333333333;;;;
2024/03/30 14:51:38;;;;;;;38.6;12.6;;;;;;;22.28;35.25;97650;;;;
2024/03/30 15:01:39;;;;;;;38.6;12.6;;;;;;;22.35;36.15;97643.333333333;;;;
2024/03/30 15:12:38;;;;;;;38.6;12.6;;;;;;;22.17;34.63;97645;;;;
2024/03/30 15:23:39;;;;;;;34.7;11.5;;;;;;;21.96;35.11;97638.333333333;;;;
2024/03/30 15:33:39;;;;;;;34.7;11.5;;;;;;;22.04;35.92;97635;;;;
2024/03/30 15:44:39;;;;;;;34.7;11.5;;;;;;;22.62;34.24;97635;;;;
2024/03/30 15:55:39;;;;;;;31;10;;;;;;;24.05;33.81;97646.666666667;;;;
2024/03/30 16:05:39;;;;;;;31;10;;;;;;;24.21;32.37;97651.666666667;;;;
2024/03/30 16:16:38;;;;;;;39.7;11.3;;;;;;;23.7;32.29;97640;;;;
2024/03/30 16:27:38;;;;;;;39.7;11.3;;;;;;;23.19;33.25;97635;;;;
2024/03/30 16:37:39;;;;;;;39.7;11.3;;;;;;;22.71;34.49;97635;;;;
2024/03/30 16:47:39;;;;;;;38.3;13.5;;;;;;;22.11;35.16;97633.333333333;;;;
2024/03/30 16:58:39;;;;;;;38.3;13.5;;;;;;;21.22;36.44;97631.666666667;;;;
2024/03/30 17:08:38;;;;;;;38.3;13.5;;;;;;;20.73;36.64;97626.666666667;;;;
2024/03/30 17:19:38;;;;;;;30;11.4;;;;;;;20.09;37.75;97628.333333333;;;;
2024/03/30 17:29:39;;;;;;;30;11.4;;;;;;;19.46;40.09;97645;;;;
2024/03/30 17:40:39;;;;;;;30;11.4;;;;;;;19.01;41.31;97655;;;;
2024/03/30 17:51:38;;;;;;;31.9;11.8;;;;;;;18.79;42.14;97668.333333333;;;;
2024/03/30 18:01:39;;;;;;;31.9;11.8;;;;;;;18.63;43.89;97673.333333333;;;;
2024/03/30 18:12:39;;;;;;;31.9;11.8;;;;;;;18.71;43.7;97701.666666667;;;;
2024/03/30 18:22:38;;;;;;;29.6;10.4;;;;;;;18.68;44.52;97718.333333333;;;;
2024/03/30 18:32:40;;;;;;;29.6;10.4;;;;;;;18.52;44.5;97721.666666667;;;;
2024/03/30 18:43:39;;;;;;;29.6;10.4;;;;;;;18.35;45.05;97713.333333333;;;;
2024/03/30 18:54:39;;;;;;;32.5;11.7;;;;;;;18.06;46.11;97746.666666667;;;;
2024/03/30 19:04:38;;;;;;;32.5;11.7;;;;;;;17.8;46.29;97738.333333333;;;;
2024/03/30 19:14:39;;;;;;;32.5;11.7;;;;;;;17.72;46.28;97728.333333333;;;;
2024/03/30 19:25:39;;;;;;;31.2;13.4;;;;;;;17.5;47.87;97733.333333333;;;;
2024/03/30 19:36:39;;;;;;;31.2;13.4;;;;;;;17.34;47.49;97716.666666667;;;;
2024/03/30 19:47:39;;;;;;;24.9;10.7;;;;;;;17.08;48.33;97703.333333333;;;;
2024/03/30 19:58:39;;;;;;;24.9;10.7;;;;;;;16.87;49.63;97721.666666667;;;;
2024/03/30 20:08:39;;;;;;;24.9;10.7;;;;;;;16.66;50.03;97730;;;;
2024/03/30 20:19:39;;;;;;;28.7;10.3;;;;;;;17.44;48.96;97726.666666667;;;;
2024/03/30 20:30:38;;;;;;;28.7;10.3;;;;;;;17.39;49.18;97730;;;;
2024/03/30 20:40:39;;;;;;;28.7;10.3;;;;;;;17.11;49.51;97721.666666667;;;;
2024/03/30 20:50:39;;;;;;;25.8;10.7;;;;;;;17.22;48.95;97706.666666667;;;;
2024/03/30 21:01:39;;;;;;;25.8;10.7;;;;;;;16.95;50.74;97715;;;;
2024/03/30 21:12:39;;;;;;;25.8;10.7;;;;;;;16.98;52.11;97711.666666667;;;;
2024/03/30 21:23:39;;;;;;;22.5;8.8;;;;;;;16.8;52.08;97721.666666667;;;;
2024/03/30 21:34:39;;;;;;;22.5;8.8;;;;;;;16.75;52.4;97720;;;;
2024/03/30 21:45:38;;;;;;;22.5;8.8;;;;;;;16.36;53.93;97716.666666667;;;;
2024/03/30 21:55:39;;;;;;;26.4;9.6;;;;;;;16.12;54.29;97711.666666667;;;;
2024/03/30 22:06:39;;;;;;;26.4;9.6;;;;;;;15.96;55.82;97701.666666667;;;;
2024/03/30 22:16:39;;;;;;;26.4;9.6;;;;;;;15.75;57.21;97700;;;;
2024/03/30 22:26:39;;;;;;;31.8;10.5;;;;;;;15.59;57.42;97700;;;;
2024/03/30 22:37:39;;;;;;;31.8;10.5;;;;;;;15.26;58.62;97690;;;;
2024/03/30 22:47:42;;;;;;;23.6;11.7;;;;;;;15.02;59.07;97688.333333333;;;;
2024/03/30 22:58:39;;;;;;;23.6;11.7;;;;;;;14.74;60.03;97690;;;;
2024/03/30 23:08:39;;;;;;;23.6;11.7;;;;;;;14.63;60.23;97688.333333333;;;;
2024/03/30 23:18:39;;;;;;;29.1;14.4;;;;;;;14.44;61.08;97676.666666667;;;;
2024/03/30 23:29:39;;;;;;;29.1;14.4;;;;;;;14.37;61.18;97673.333333333;;;;
2024/03/30 23:40:39;;;;;;;29.1;14.4;;;;;;;14.07;61.57;97668.333333333;;;;
2024/03/30 23:50:39;;;;;;;26.6;13.1;;;;;;;13.83;62.39;97656.666666667;;;;
